sensor_id;sensor_type;location;lat;lon;timestamp;temperature;humidity
61392;DHT22;47261;52.892;5.738;2023-10-19T00:01:58;9.40;99.90
61392;DHT22;47261;52.892;5.738;2023-10-19T00:04:25;9.40;99.90
61392;DHT22;47261;52.892;5.738;2023-10-19T00:06:52;9.40;99.90
61392;DHT22;47261;52.892;5.738;2023-10-19T00:09:18;9.40;99.90
61392;DHT22;47261;52.892;5.738;2023-10-19T00:11:45;9.40;99.90
61392;DHT22;47261;52.892;5.738;2023-10-19T00:14:13;9.40;99.90
61392;DHT22;47261;52.892;5.738;2023-10-19T00:16:43;9.40;99.90
61392;DHT22;47261;52.892;5.738;2023-10-19T00:19:15;9.40;99.90
61392;DHT22;47261;52.892;5.738;2023-10-19T00:21:45;9.40;99.90
61392;DHT22;47261;52.892;5.738;2023-10-19T00:24:20;9.40;99.90
61392;DHT22;47261;52.892;5.738;2023-10-19T00:26:47;9.40;99.90
61392;DHT22;47261;52.892;5.738;2023-10-19T00:29:14;9.40;99.90
61392;DHT22;47261;52.892;5.738;2023-10-19T00:31:55;9.50;99.90
61392;DHT22;47261;52.892;5.738;2023-10-19T00:34:22;9.40;99.90
61392;DHT22;47261;52.892;5.738;2023-10-19T00:36:49;9.40;99.90
61392;DHT22;47261;52.892;5.738;2023-10-19T00:39:16;9.40;99.90
61392;DHT22;47261;52.892;5.738;2023-10-19T00:41:46;9.50;99.90
61392;DHT22;47261;52.892;5.738;2023-10-19T00:44:13;9.40;99.90
61392;DHT22;47261;52.892;5.738;2023-10-19T00:46:47;9.50;99.90
61392;DHT22;47261;52.892;5.738;2023-10-19T00:49:17;9.50;99.90
61392;DHT22;47261;52.892;5.738;2023-10-19T00:51:51;9.50;99.90
61392;DHT22;47261;52.892;5.738;2023-10-19T00:54:30;9.50;99.90
61392;DHT22;47261;52.892;5.738;2023-10-19T00:56:59;9.50;99.90
61392;DHT22;47261;52.892;5.738;2023-10-19T00:59:30;9.50;99.90
61392;DHT22;47261;52.892;5.738;2023-10-19T01:01:56;9.50;99.90
61392;DHT22;47261;52.892;5.738;2023-10-19T01:04:41;9.50;99.90
61392;DHT22;47261;52.892;5.738;2023-10-19T01:07:09;9.50;99.90
61392;DHT22;47261;52.892;5.738;2023-10-19T01:09:47;9.50;99.90
61392;DHT22;47261;52.892;5.738;2023-10-19T01:12:12;9.50;99.90
61392;DHT22;47261;52.892;5.738;2023-10-19T01:15:10;9.50;99.90
61392;DHT22;47261;52.892;5.738;2023-10-19T01:20:14;9.50;99.90
61392;DHT22;47261;52.892;5.738;2023-10-19T01:22:48;9.50;99.90
61392;DHT22;47261;52.892;5.738;2023-10-19T01:25:44;9.50;99.90
61392;DHT22;47261;52.892;5.738;2023-10-19T01:30:54;9.50;99.90
61392;DHT22;47261;52.892;5.738;2023-10-19T01:33:21;9.50;99.90
61392;DHT22;47261;52.892;5.738;2023-10-19T01:35:48;9.50;99.90
61392;DHT22;47261;52.892;5.738;2023-10-19T01:38:32;9.50;99.90
61392;DHT22;47261;52.892;5.738;2023-10-19T01:41:03;9.60;99.90
61392;DHT22;47261;52.892;5.738;2023-10-19T01:43:42;9.50;99.90
61392;DHT22;47261;52.892;5.738;2023-10-19T01:46:08;9.60;99.90
61392;DHT22;47261;52.892;5.738;2023-10-19T01:48:41;9.60;99.90
61392;DHT22;47261;52.892;5.738;2023-10-19T01:51:09;9.60;99.90
61392;DHT22;47261;52.892;5.738;2023-10-19T01:53:40;9.60;99.90
61392;DHT22;47261;52.892;5.738;2023-10-19T01:56:09;9.60;99.90
61392;DHT22;47261;52.892;5.738;2023-10-19T01:58:38;9.60;99.90
61392;DHT22;47261;52.892;5.738;2023-10-19T02:01:05;9.60;99.90
61392;DHT22;47261;52.892;5.738;2023-10-19T02:03:46;9.60;99.90
61392;DHT22;47261;52.892;5.738;2023-10-19T02:06:14;9.60;99.90
61392;DHT22;47261;52.892;5.738;2023-10-19T02:08:52;9.60;99.90
61392;DHT22;47261;52.892;5.738;2023-10-19T02:11:25;9.60;99.90
61392;DHT22;47261;52.892;5.738;2023-10-19T02:13:53;9.60;99.90
61392;DHT22;47261;52.892;5.738;2023-10-19T02:16:20;9.70;99.90
61392;DHT22;47261;52.892;5.738;2023-10-19T02:18:50;9.70;99.90
61392;DHT22;47261;52.892;5.738;2023-10-19T02:21:16;9.70;99.90
61392;DHT22;47261;52.892;5.738;2023-10-19T02:23:48;9.70;99.90
61392;DHT22;47261;52.892;5.738;2023-10-19T02:26:19;9.70;99.90
61392;DHT22;47261;52.892;5.738;2023-10-19T02:28:46;9.70;99.90
61392;DHT22;47261;52.892;5.738;2023-10-19T02:31:12;9.70;99.90
61392;DHT22;47261;52.892;5.738;2023-10-19T02:33:44;9.70;99.90
61392;DHT22;47261;52.892;5.738;2023-10-19T02:36:17;9.80;99.90
61392;DHT22;47261;52.892;5.738;2023-10-19T02:38:45;9.80;99.90
61392;DHT22;47261;52.892;5.738;2023-10-19T02:41:17;9.80;99.90
61392;DHT22;47261;52.892;5.738;2023-10-19T02:43:43;9.80;99.90
61392;DHT22;47261;52.892;5.738;2023-10-19T02:46:16;9.80;99.90
61392;DHT22;47261;52.892;5.738;2023-10-19T02:48:43;9.90;99.90
61392;DHT22;47261;52.892;5.738;2023-10-19T02:51:15;9.90;99.90
61392;DHT22;47261;52.892;5.738;2023-10-19T02:53:41;9.90;99.90
61392;DHT22;47261;52.892;5.738;2023-10-19T02:56:15;9.90;99.90
61392;DHT22;47261;52.892;5.738;2023-10-19T02:58:46;9.90;99.90
61392;DHT22;47261;52.892;5.738;2023-10-19T03:01:21;10.00;99.90
61392;DHT22;47261;52.892;5.738;2023-10-19T03:03:51;10.00;99.90
61392;DHT22;47261;52.892;5.738;2023-10-19T03:06:22;10.00;99.90
61392;DHT22;47261;52.892;5.738;2023-10-19T03:08:48;10.00;99.90
61392;DHT22;47261;52.892;5.738;2023-10-19T03:11:21;10.00;99.90
61392;DHT22;47261;52.892;5.738;2023-10-19T03:13:47;10.00;99.90
61392;DHT22;47261;52.892;5.738;2023-10-19T03:16:16;10.10;99.90
61392;DHT22;47261;52.892;5.738;2023-10-19T03:18:42;10.00;99.90
61392;DHT22;47261;52.892;5.738;2023-10-19T03:21:08;10.10;99.90
61392;DHT22;47261;52.892;5.738;2023-10-19T03:23:35;10.10;99.90
61392;DHT22;47261;52.892;5.738;2023-10-19T03:26:04;10.10;99.90
61392;DHT22;47261;52.892;5.738;2023-10-19T03:28:49;10.10;99.90
61392;DHT22;47261;52.892;5.738;2023-10-19T03:31:23;10.10;99.90
61392;DHT22;47261;52.892;5.738;2023-10-19T03:33:51;10.10;99.90
61392;DHT22;47261;52.892;5.738;2023-10-19T03:36:23;10.20;99.90
61392;DHT22;47261;52.892;5.738;2023-10-19T03:38:49;10.20;99.90
61392;DHT22;47261;52.892;5.738;2023-10-19T03:41:17;10.20;99.90
61392;DHT22;47261;52.892;5.738;2023-10-19T03:43:48;10.30;99.90
61392;DHT22;47261;52.892;5.738;2023-10-19T03:46:14;10.30;99.90
61392;DHT22;47261;52.892;5.738;2023-10-19T03:48:47;10.30;99.90
61392;DHT22;47261;52.892;5.738;2023-10-19T03:51:13;10.40;99.90
61392;DHT22;47261;52.892;5.738;2023-10-19T03:53:40;10.40;99.90
61392;DHT22;47261;52.892;5.738;2023-10-19T03:56:09;10.40;99.90
61392;DHT22;47261;52.892;5.738;2023-10-19T03:58:37;10.50;99.90
61392;DHT22;47261;52.892;5.738;2023-10-19T04:01:04;10.50;99.90
61392;DHT22;47261;52.892;5.738;2023-10-19T04:03:30;10.50;99.90
61392;DHT22;47261;52.892;5.738;2023-10-19T04:05:56;10.50;99.90
61392;DHT22;47261;52.892;5.738;2023-10-19T04:08:28;10.60;99.90
61392;DHT22;47261;52.892;5.738;2023-10-19T04:11:00;10.60;99.90
61392;DHT22;47261;52.892;5.738;2023-10-19T04:13:40;10.60;99.90
61392;DHT22;47261;52.892;5.738;2023-10-19T04:16:05;10.60;99.90
61392;DHT22;47261;52.892;5.738;2023-10-19T04:18:35;10.70;99.90
61392;DHT22;47261;52.892;5.738;2023-10-19T04:21:05;10.70;99.90
61392;DHT22;47261;52.892;5.738;2023-10-19T04:23:30;10.80;99.90
61392;DHT22;47261;52.892;5.738;2023-10-19T04:26:00;10.80;99.90
61392;DHT22;47261;52.892;5.738;2023-10-19T04:28:31;10.80;99.90
61392;DHT22;47261;52.892;5.738;2023-10-19T04:30:59;10.90;99.90
61392;DHT22;47261;52.892;5.738;2023-10-19T04:33:39;10.90;99.90
61392;DHT22;47261;52.892;5.738;2023-10-19T04:36:04;10.90;99.90
61392;DHT22;47261;52.892;5.738;2023-10-19T04:38:34;11.00;99.90
61392;DHT22;47261;52.892;5.738;2023-10-19T04:41:10;11.00;99.90
61392;DHT22;47261;52.892;5.738;2023-10-19T04:43:37;11.10;99.90
61392;DHT22;47261;52.892;5.738;2023-10-19T04:46:10;11.10;99.90
61392;DHT22;47261;52.892;5.738;2023-10-19T04:48:37;11.10;99.90
61392;DHT22;47261;52.892;5.738;2023-10-19T04:51:08;11.20;99.90
61392;DHT22;47261;52.892;5.738;2023-10-19T04:53:37;11.20;99.90
61392;DHT22;47261;52.892;5.738;2023-10-19T04:56:05;11.20;99.90
61392;DHT22;47261;52.892;5.738;2023-10-19T04:58:30;11.30;99.90
61392;DHT22;47261;52.892;5.738;2023-10-19T05:00:56;11.30;99.90
61392;DHT22;47261;52.892;5.738;2023-10-19T05:03:25;11.30;99.90
61392;DHT22;47261;52.892;5.738;2023-10-19T05:05:51;11.40;99.90
61392;DHT22;47261;52.892;5.738;2023-10-19T05:08:17;11.40;99.90
61392;DHT22;47261;52.892;5.738;2023-10-19T05:10:42;11.40;99.90
61392;DHT22;47261;52.892;5.738;2023-10-19T05:13:08;11.40;99.90
61392;DHT22;47261;52.892;5.738;2023-10-19T05:15:34;11.50;99.90
61392;DHT22;47261;52.892;5.738;2023-10-19T05:18:00;11.50;99.90
61392;DHT22;47261;52.892;5.738;2023-10-19T05:20:26;11.40;99.90
61392;DHT22;47261;52.892;5.738;2023-10-19T05:22:51;11.40;99.90
61392;DHT22;47261;52.892;5.738;2023-10-19T05:25:17;11.40;99.90
61392;DHT22;47261;52.892;5.738;2023-10-19T05:27:42;11.50;99.90
61392;DHT22;47261;52.892;5.738;2023-10-19T05:30:11;11.50;99.90
61392;DHT22;47261;52.892;5.738;2023-10-19T05:32:37;11.50;99.90
61392;DHT22;47261;52.892;5.738;2023-10-19T05:35:03;11.50;99.90
61392;DHT22;47261;52.892;5.738;2023-10-19T05:37:30;11.50;99.90
61392;DHT22;47261;52.892;5.738;2023-10-19T05:39:56;11.50;99.90
61392;DHT22;47261;52.892;5.738;2023-10-19T05:42:22;11.50;99.90
61392;DHT22;47261;52.892;5.738;2023-10-19T05:44:48;11.50;99.90
61392;DHT22;47261;52.892;5.738;2023-10-19T05:47:14;11.50;99.90
61392;DHT22;47261;52.892;5.738;2023-10-19T05:49:39;11.50;99.90
61392;DHT22;47261;52.892;5.738;2023-10-19T05:52:05;11.60;99.90
61392;DHT22;47261;52.892;5.738;2023-10-19T05:54:30;11.60;99.90
61392;DHT22;47261;52.892;5.738;2023-10-19T05:56:56;11.60;99.90
61392;DHT22;47261;52.892;5.738;2023-10-19T05:59:22;11.60;99.90
61392;DHT22;47261;52.892;5.738;2023-10-19T06:01:52;11.60;99.90
61392;DHT22;47261;52.892;5.738;2023-10-19T06:04:17;11.70;99.90
61392;DHT22;47261;52.892;5.738;2023-10-19T06:06:43;11.70;99.90
61392;DHT22;47261;52.892;5.738;2023-10-19T06:09:08;11.60;99.90
61392;DHT22;47261;52.892;5.738;2023-10-19T06:11:35;11.70;99.90
61392;DHT22;47261;52.892;5.738;2023-10-19T06:14:03;11.60;99.90
61392;DHT22;47261;52.892;5.738;2023-10-19T06:16:33;11.70;99.90
61392;DHT22;47261;52.892;5.738;2023-10-19T06:18:59;11.70;99.90
61392;DHT22;47261;52.892;5.738;2023-10-19T06:21:25;11.70;99.90
61392;DHT22;47261;52.892;5.738;2023-10-19T06:23:50;11.70;99.90
61392;DHT22;47261;52.892;5.738;2023-10-19T06:26:18;11.70;99.90
61392;DHT22;47261;52.892;5.738;2023-10-19T06:28:43;11.70;99.90
61392;DHT22;47261;52.892;5.738;2023-10-19T06:31:10;11.70;99.90
61392;DHT22;47261;52.892;5.738;2023-10-19T06:33:36;11.70;99.90
61392;DHT22;47261;52.892;5.738;2023-10-19T06:36:04;11.80;99.90
61392;DHT22;47261;52.892;5.738;2023-10-19T06:38:30;11.80;99.90
61392;DHT22;47261;52.892;5.738;2023-10-19T06:40:57;11.80;99.90
61392;DHT22;47261;52.892;5.738;2023-10-19T06:43:22;11.80;99.90
61392;DHT22;47261;52.892;5.738;2023-10-19T06:45:53;11.90;99.90
61392;DHT22;47261;52.892;5.738;2023-10-19T06:48:20;11.90;99.90
61392;DHT22;47261;52.892;5.738;2023-10-19T06:50:46;11.90;99.90
61392;DHT22;47261;52.892;5.738;2023-10-19T06:53:12;12.00;99.90
61392;DHT22;47261;52.892;5.738;2023-10-19T06:55:37;12.00;99.90
61392;DHT22;47261;52.892;5.738;2023-10-19T06:58:04;12.00;99.90
61392;DHT22;47261;52.892;5.738;2023-10-19T07:00:30;12.10;99.90
61392;DHT22;47261;52.892;5.738;2023-10-19T07:02:57;12.10;99.90
61392;DHT22;47261;52.892;5.738;2023-10-19T07:05:23;12.10;99.90
61392;DHT22;47261;52.892;5.738;2023-10-19T07:07:55;12.10;99.90
61392;DHT22;47261;52.892;5.738;2023-10-19T07:10:22;12.10;99.90
61392;DHT22;47261;52.892;5.738;2023-10-19T07:12:51;12.10;99.90
61392;DHT22;47261;52.892;5.738;2023-10-19T07:15:17;12.10;99.90
61392;DHT22;47261;52.892;5.738;2023-10-19T07:17:45;12.20;99.90
61392;DHT22;47261;52.892;5.738;2023-10-19T07:20:13;12.20;99.90
61392;DHT22;47261;52.892;5.738;2023-10-19T07:22:51;12.20;99.90
61392;DHT22;47261;52.892;5.738;2023-10-19T07:25:17;12.30;99.90
61392;DHT22;47261;52.892;5.738;2023-10-19T07:27:47;12.30;99.90
61392;DHT22;47261;52.892;5.738;2023-10-19T07:30:13;12.30;99.90
61392;DHT22;47261;52.892;5.738;2023-10-19T07:32:41;12.30;99.90
61392;DHT22;47261;52.892;5.738;2023-10-19T07:35:07;12.30;99.90
61392;DHT22;47261;52.892;5.738;2023-10-19T07:37:32;12.30;99.90
61392;DHT22;47261;52.892;5.738;2023-10-19T07:39:58;12.40;99.90
61392;DHT22;47261;52.892;5.738;2023-10-19T07:42:24;12.40;99.90
61392;DHT22;47261;52.892;5.738;2023-10-19T07:44:51;12.40;99.90
61392;DHT22;47261;52.892;5.738;2023-10-19T07:47:17;12.50;99.90
61392;DHT22;47261;52.892;5.738;2023-10-19T07:49:42;12.50;99.90
61392;DHT22;47261;52.892;5.738;2023-10-19T07:52:08;12.50;99.90
61392;DHT22;47261;52.892;5.738;2023-10-19T07:54:37;12.50;99.90
61392;DHT22;47261;52.892;5.738;2023-10-19T07:57:03;12.50;99.90
61392;DHT22;47261;52.892;5.738;2023-10-19T07:59:33;12.50;99.90
61392;DHT22;47261;52.892;5.738;2023-10-19T08:01:59;12.60;99.90
61392;DHT22;47261;52.892;5.738;2023-10-19T08:04:28;12.60;99.90
61392;DHT22;47261;52.892;5.738;2023-10-19T08:06:54;12.60;99.90
61392;DHT22;47261;52.892;5.738;2023-10-19T08:09:23;12.60;99.90
61392;DHT22;47261;52.892;5.738;2023-10-19T08:11:50;12.70;99.90
61392;DHT22;47261;52.892;5.738;2023-10-19T08:14:22;12.70;99.90
61392;DHT22;47261;52.892;5.738;2023-10-19T08:16:47;12.70;99.90
61392;DHT22;47261;52.892;5.738;2023-10-19T08:19:13;12.70;99.90
61392;DHT22;47261;52.892;5.738;2023-10-19T08:21:38;12.70;99.90
61392;DHT22;47261;52.892;5.738;2023-10-19T08:24:04;12.70;99.90
61392;DHT22;47261;52.892;5.738;2023-10-19T08:26:31;12.80;99.90
61392;DHT22;47261;52.892;5.738;2023-10-19T08:28:56;12.80;99.90
61392;DHT22;47261;52.892;5.738;2023-10-19T08:31:24;12.90;99.90
61392;DHT22;47261;52.892;5.738;2023-10-19T08:33:50;12.90;99.90
61392;DHT22;47261;52.892;5.738;2023-10-19T08:36:20;13.00;99.90
61392;DHT22;47261;52.892;5.738;2023-10-19T08:38:46;13.00;99.90
61392;DHT22;47261;52.892;5.738;2023-10-19T08:41:14;13.10;99.90
61392;DHT22;47261;52.892;5.738;2023-10-19T08:43:41;13.10;99.90
61392;DHT22;47261;52.892;5.738;2023-10-19T08:46:06;13.20;99.90
61392;DHT22;47261;52.892;5.738;2023-10-19T08:48:36;13.20;99.90
61392;DHT22;47261;52.892;5.738;2023-10-19T08:51:09;13.30;99.90
61392;DHT22;47261;52.892;5.738;2023-10-19T08:53:38;13.30;99.90
61392;DHT22;47261;52.892;5.738;2023-10-19T08:56:10;13.40;99.90
61392;DHT22;47261;52.892;5.738;2023-10-19T08:58:37;13.40;99.90
61392;DHT22;47261;52.892;5.738;2023-10-19T09:01:03;13.40;99.90
61392;DHT22;47261;52.892;5.738;2023-10-19T09:03:35;13.50;99.90
61392;DHT22;47261;52.892;5.738;2023-10-19T09:06:02;13.50;99.90
61392;DHT22;47261;52.892;5.738;2023-10-19T09:08:31;13.60;99.90
61392;DHT22;47261;52.892;5.738;2023-10-19T09:11:09;13.50;99.90
61392;DHT22;47261;52.892;5.738;2023-10-19T09:13:48;13.60;99.90
61392;DHT22;47261;52.892;5.738;2023-10-19T09:16:15;13.60;99.90
61392;DHT22;47261;52.892;5.738;2023-10-19T09:18:41;13.60;99.90
61392;DHT22;47261;52.892;5.738;2023-10-19T09:21:07;13.70;99.90
61392;DHT22;47261;52.892;5.738;2023-10-19T09:23:37;13.70;99.90
61392;DHT22;47261;52.892;5.738;2023-10-19T09:26:04;13.70;99.90
61392;DHT22;47261;52.892;5.738;2023-10-19T09:28:31;13.70;99.90
61392;DHT22;47261;52.892;5.738;2023-10-19T09:31:00;13.70;99.90
61392;DHT22;47261;52.892;5.738;2023-10-19T09:33:27;13.70;99.90
61392;DHT22;47261;52.892;5.738;2023-10-19T09:35:53;13.80;99.90
61392;DHT22;47261;52.892;5.738;2023-10-19T09:38:20;13.80;99.90
61392;DHT22;47261;52.892;5.738;2023-10-19T09:40:50;13.90;99.90
61392;DHT22;47261;52.892;5.738;2023-10-19T09:43:41;13.90;99.90
61392;DHT22;47261;52.892;5.738;2023-10-19T09:46:09;13.90;99.90
61392;DHT22;47261;52.892;5.738;2023-10-19T09:48:41;13.90;99.90
61392;DHT22;47261;52.892;5.738;2023-10-19T09:51:07;14.00;99.90
61392;DHT22;47261;52.892;5.738;2023-10-19T09:53:34;14.00;99.90
61392;DHT22;47261;52.892;5.738;2023-10-19T09:56:02;14.10;99.90
61392;DHT22;47261;52.892;5.738;2023-10-19T09:58:45;14.10;99.90
61392;DHT22;47261;52.892;5.738;2023-10-19T10:01:11;14.20;99.90
61392;DHT22;47261;52.892;5.738;2023-10-19T10:03:52;14.20;99.90
61392;DHT22;47261;52.892;5.738;2023-10-19T10:08:54;14.30;99.90
61392;DHT22;47261;52.892;5.738;2023-10-19T10:11:23;14.40;99.90
61392;DHT22;47261;52.892;5.738;2023-10-19T10:13:52;14.40;99.90
61392;DHT22;47261;52.892;5.738;2023-10-19T10:16:23;14.40;99.90
61392;DHT22;47261;52.892;5.738;2023-10-19T10:18:50;14.40;99.90
61392;DHT22;47261;52.892;5.738;2023-10-19T10:21:22;14.50;99.90
61392;DHT22;47261;52.892;5.738;2023-10-19T10:23:59;14.50;99.90
61392;DHT22;47261;52.892;5.738;2023-10-19T10:26:27;14.50;99.90
61392;DHT22;47261;52.892;5.738;2023-10-19T10:31:47;14.50;99.90
61392;DHT22;47261;52.892;5.738;2023-10-19T10:37:09;14.60;99.90
61392;DHT22;47261;52.892;5.738;2023-10-19T10:39:38;14.70;99.90
61392;DHT22;47261;52.892;5.738;2023-10-19T10:42:05;14.90;99.90
61392;DHT22;47261;52.892;5.738;2023-10-19T10:47:11;15.00;99.90
61392;DHT22;47261;52.892;5.738;2023-10-19T10:49:54;15.00;99.90
61392;DHT22;47261;52.892;5.738;2023-10-19T10:52:24;15.00;99.90
61392;DHT22;47261;52.892;5.738;2023-10-19T10:54:51;15.00;99.90
61392;DHT22;47261;52.892;5.738;2023-10-19T10:57:17;15.00;99.90
61392;DHT22;47261;52.892;5.738;2023-10-19T10:59:43;15.00;99.90
61392;DHT22;47261;52.892;5.738;2023-10-19T11:02:18;15.10;99.90
61392;DHT22;47261;52.892;5.738;2023-10-19T11:04:45;15.10;99.90
61392;DHT22;47261;52.892;5.738;2023-10-19T11:07:18;15.10;99.90
61392;DHT22;47261;52.892;5.738;2023-10-19T11:09:46;15.10;99.90
61392;DHT22;47261;52.892;5.738;2023-10-19T11:12:12;15.10;99.90
61392;DHT22;47261;52.892;5.738;2023-10-19T11:14:52;15.20;99.90
61392;DHT22;47261;52.892;5.738;2023-10-19T11:17:19;15.20;99.90
61392;DHT22;47261;52.892;5.738;2023-10-19T11:19:44;15.20;99.90
61392;DHT22;47261;52.892;5.738;2023-10-19T11:22:10;15.30;99.90
61392;DHT22;47261;52.892;5.738;2023-10-19T11:24:36;15.40;99.90
61392;DHT22;47261;52.892;5.738;2023-10-19T11:27:06;15.50;99.90
61392;DHT22;47261;52.892;5.738;2023-10-19T11:29:33;15.70;99.90
61392;DHT22;47261;52.892;5.738;2023-10-19T11:32:02;15.80;99.90
61392;DHT22;47261;52.892;5.738;2023-10-19T11:34:28;15.90;99.90
61392;DHT22;47261;52.892;5.738;2023-10-19T11:36:58;16.00;99.90
61392;DHT22;47261;52.892;5.738;2023-10-19T11:39:25;16.10;99.90
61392;DHT22;47261;52.892;5.738;2023-10-19T11:41:51;16.00;99.90
61392;DHT22;47261;52.892;5.738;2023-10-19T11:44:18;16.00;99.90
61392;DHT22;47261;52.892;5.738;2023-10-19T11:46:45;15.90;99.90
61392;DHT22;47261;52.892;5.738;2023-10-19T11:49:10;15.90;99.90
61392;DHT22;47261;52.892;5.738;2023-10-19T11:51:37;15.90;99.90
61392;DHT22;47261;52.892;5.738;2023-10-19T11:54:05;15.80;99.90
61392;DHT22;47261;52.892;5.738;2023-10-19T11:56:31;15.80;99.90
61392;DHT22;47261;52.892;5.738;2023-10-19T11:58:57;15.70;99.90
61392;DHT22;47261;52.892;5.738;2023-10-19T12:01:23;15.70;99.90
61392;DHT22;47261;52.892;5.738;2023-10-19T12:03:50;15.70;99.90
61392;DHT22;47261;52.892;5.738;2023-10-19T12:06:16;15.60;99.90
61392;DHT22;47261;52.892;5.738;2023-10-19T12:08:45;15.60;99.90
61392;DHT22;47261;52.892;5.738;2023-10-19T12:11:11;15.50;99.90
61392;DHT22;47261;52.892;5.738;2023-10-19T12:13:44;15.50;99.90
61392;DHT22;47261;52.892;5.738;2023-10-19T12:16:11;15.50;99.90
61392;DHT22;47261;52.892;5.738;2023-10-19T12:18:41;15.40;99.90
61392;DHT22;47261;52.892;5.738;2023-10-19T12:21:08;15.40;99.90
61392;DHT22;47261;52.892;5.738;2023-10-19T12:23:42;15.40;99.90
61392;DHT22;47261;52.892;5.738;2023-10-19T12:26:08;15.30;99.90
61392;DHT22;47261;52.892;5.738;2023-10-19T12:28:40;15.40;99.90
61392;DHT22;47261;52.892;5.738;2023-10-19T12:31:07;15.30;99.90
61392;DHT22;47261;52.892;5.738;2023-10-19T12:33:37;15.30;99.90
61392;DHT22;47261;52.892;5.738;2023-10-19T12:36:04;15.30;99.90
61392;DHT22;47261;52.892;5.738;2023-10-19T12:38:50;15.30;99.90
61392;DHT22;47261;52.892;5.738;2023-10-19T12:41:17;15.30;99.90
61392;DHT22;47261;52.892;5.738;2023-10-19T12:43:43;15.20;99.90
61392;DHT22;47261;52.892;5.738;2023-10-19T12:46:09;15.20;99.90
61392;DHT22;47261;52.892;5.738;2023-10-19T12:48:37;15.20;99.90
61392;DHT22;47261;52.892;5.738;2023-10-19T12:51:03;15.20;99.90
61392;DHT22;47261;52.892;5.738;2023-10-19T12:53:29;15.20;99.90
61392;DHT22;47261;52.892;5.738;2023-10-19T12:55:55;15.20;99.90
61392;DHT22;47261;52.892;5.738;2023-10-19T12:58:20;15.20;99.90
61392;DHT22;47261;52.892;5.738;2023-10-19T13:00:46;15.20;99.90
61392;DHT22;47261;52.892;5.738;2023-10-19T13:03:15;15.30;99.90
61392;DHT22;47261;52.892;5.738;2023-10-19T13:05:44;15.30;99.90
61392;DHT22;47261;52.892;5.738;2023-10-19T13:08:11;15.30;99.90
61392;DHT22;47261;52.892;5.738;2023-10-19T13:10:44;15.20;99.90
61392;DHT22;47261;52.892;5.738;2023-10-19T13:13:11;15.30;99.90
61392;DHT22;47261;52.892;5.738;2023-10-19T13:15:38;15.30;99.90
61392;DHT22;47261;52.892;5.738;2023-10-19T13:18:06;15.20;99.90
61392;DHT22;47261;52.892;5.738;2023-10-19T13:20:34;15.20;99.90
61392;DHT22;47261;52.892;5.738;2023-10-19T13:23:04;15.20;99.90
61392;DHT22;47261;52.892;5.738;2023-10-19T13:25:33;15.20;99.90
61392;DHT22;47261;52.892;5.738;2023-10-19T13:28:22;15.20;99.90
61392;DHT22;47261;52.892;5.738;2023-10-19T13:30:49;15.20;99.90
61392;DHT22;47261;52.892;5.738;2023-10-19T13:33:17;15.20;99.90
61392;DHT22;47261;52.892;5.738;2023-10-19T13:35:45;15.20;99.90
61392;DHT22;47261;52.892;5.738;2023-10-19T13:38:11;15.10;99.90
61392;DHT22;47261;52.892;5.738;2023-10-19T13:40:40;15.10;99.90
61392;DHT22;47261;52.892;5.738;2023-10-19T13:43:07;15.10;99.90
61392;DHT22;47261;52.892;5.738;2023-10-19T13:45:36;15.00;99.90
61392;DHT22;47261;52.892;5.738;2023-10-19T13:48:06;14.90;99.90
61392;DHT22;47261;52.892;5.738;2023-10-19T13:50:33;14.90;99.90
61392;DHT22;47261;52.892;5.738;2023-10-19T13:53:00;14.90;99.90
61392;DHT22;47261;52.892;5.738;2023-10-19T13:55:29;14.80;99.90
61392;DHT22;47261;52.892;5.738;2023-10-19T13:57:55;14.80;99.90
61392;DHT22;47261;52.892;5.738;2023-10-19T14:00:22;14.70;99.90
61392;DHT22;47261;52.892;5.738;2023-10-19T14:02:58;14.70;99.90
61392;DHT22;47261;52.892;5.738;2023-10-19T14:05:25;14.60;99.90
61392;DHT22;47261;52.892;5.738;2023-10-19T14:07:51;14.70;99.90
61392;DHT22;47261;52.892;5.738;2023-10-19T14:10:17;14.70;99.90
61392;DHT22;47261;52.892;5.738;2023-10-19T14:12:46;14.70;99.90
61392;DHT22;47261;52.892;5.738;2023-10-19T14:15:16;14.60;99.90
61392;DHT22;47261;52.892;5.738;2023-10-19T14:17:47;14.60;99.90
61392;DHT22;47261;52.892;5.738;2023-10-19T14:20:16;14.60;99.90
61392;DHT22;47261;52.892;5.738;2023-10-19T14:22:44;14.50;99.90
61392;DHT22;47261;52.892;5.738;2023-10-19T14:25:12;14.50;99.90
61392;DHT22;47261;52.892;5.738;2023-10-19T14:27:43;14.50;99.90
61392;DHT22;47261;52.892;5.738;2023-10-19T14:30:10;14.40;99.90
61392;DHT22;47261;52.892;5.738;2023-10-19T14:32:39;14.40;99.90
61392;DHT22;47261;52.892;5.738;2023-10-19T14:35:05;14.40;99.90
61392;DHT22;47261;52.892;5.738;2023-10-19T14:37:34;14.30;99.90
61392;DHT22;47261;52.892;5.738;2023-10-19T14:40:00;14.30;99.90
61392;DHT22;47261;52.892;5.738;2023-10-19T14:42:26;14.20;99.90
61392;DHT22;47261;52.892;5.738;2023-10-19T14:44:56;14.20;99.90
61392;DHT22;47261;52.892;5.738;2023-10-19T14:47:21;14.10;99.90
61392;DHT22;47261;52.892;5.738;2023-10-19T14:49:47;14.10;99.90
61392;DHT22;47261;52.892;5.738;2023-10-19T14:52:12;14.10;99.90
61392;DHT22;47261;52.892;5.738;2023-10-19T14:54:38;14.10;99.90
61392;DHT22;47261;52.892;5.738;2023-10-19T14:57:03;14.00;99.90
61392;DHT22;47261;52.892;5.738;2023-10-19T14:59:29;14.00;99.90
61392;DHT22;47261;52.892;5.738;2023-10-19T15:01:55;14.10;99.90
61392;DHT22;47261;52.892;5.738;2023-10-19T15:04:20;14.00;99.90
61392;DHT22;47261;52.892;5.738;2023-10-19T15:06:46;14.00;99.90
61392;DHT22;47261;52.892;5.738;2023-10-19T15:09:11;14.00;99.90
61392;DHT22;47261;52.892;5.738;2023-10-19T15:11:41;14.00;99.90
61392;DHT22;47261;52.892;5.738;2023-10-19T15:14:06;13.90;99.90
61392;DHT22;47261;52.892;5.738;2023-10-19T15:16:32;13.90;99.90
61392;DHT22;47261;52.892;5.738;2023-10-19T15:18:58;13.90;99.90
61392;DHT22;47261;52.892;5.738;2023-10-19T15:21:24;13.90;99.90
61392;DHT22;47261;52.892;5.738;2023-10-19T15:23:49;13.80;99.90
61392;DHT22;47261;52.892;5.738;2023-10-19T15:26:18;13.80;99.90
61392;DHT22;47261;52.892;5.738;2023-10-19T15:28:44;13.70;99.90
61392;DHT22;47261;52.892;5.738;2023-10-19T15:31:10;13.70;99.90
61392;DHT22;47261;52.892;5.738;2023-10-19T15:33:35;13.70;99.90
61392;DHT22;47261;52.892;5.738;2023-10-19T15:36:01;13.70;99.90
61392;DHT22;47261;52.892;5.738;2023-10-19T15:38:27;13.60;99.90
61392;DHT22;47261;52.892;5.738;2023-10-19T15:40:52;13.60;99.90
61392;DHT22;47261;52.892;5.738;2023-10-19T15:43:20;13.60;99.90
61392;DHT22;47261;52.892;5.738;2023-10-19T15:45:46;13.60;99.90
61392;DHT22;47261;52.892;5.738;2023-10-19T15:48:14;13.50;99.90
61392;DHT22;47261;52.892;5.738;2023-10-19T15:50:39;13.50;99.90
61392;DHT22;47261;52.892;5.738;2023-10-19T15:53:08;13.50;99.90
61392;DHT22;47261;52.892;5.738;2023-10-19T15:55:35;13.50;99.90
61392;DHT22;47261;52.892;5.738;2023-10-19T15:58:01;13.50;99.90